sensor_id;sensor_type;location;lat;lon;timestamp;pressure;altitude;pressure_sealevel;temperature;humidity
34925;BME280;21130;51.728;8.748;2024-02-28T00:00:43;100784.97;;;-1.98;100.00
34925;BME280;21130;51.728;8.748;2024-02-28T00:03:10;100800.91;;;-2.03;100.00
34925;BME280;21130;51.728;8.748;2024-02-28T00:05:37;100798.78;;;-2.09;100.00
34925;BME280;21130;51.728;8.748;2024-02-28T00:08:04;100792.75;;;-2.03;100.00
34925;BME280;21130;51.728;8.748;2024-02-28T00:10:33;100790.69;;;-1.83;100.00
34925;BME280;21130;51.728;8.748;2024-02-28T00:12:59;100785.78;;;-1.79;100.00
34925;BME280;21130;51.728;8.748;2024-02-28T00:15:26;100787.41;;;-1.86;100.00
34925;BME280;21130;51.728;8.748;2024-02-28T00:17:52;100798.94;;;-1.92;100.00
34925;BME280;21130;51.728;8.748;2024-02-28T00:20:19;100794.81;;;-1.97;100.00
34925;BME280;21130;51.728;8.748;2024-02-28T00:22:45;100792.41;;;-2.00;100.00
34925;BME280;21130;51.728;8.748;2024-02-28T00:25:12;100791.84;;;-2.03;100.00
34925;BME280;21130;51.728;8.748;2024-02-28T00:27:40;100794.44;;;-2.02;100.00
34925;BME280;21130;51.728;8.748;2024-02-28T00:30:07;100796.78;;;-2.07;100.00
34925;BME280;21130;51.728;8.748;2024-02-28T00:32:33;100797.53;;;-2.14;100.00
34925;BME280;21130;51.728;8.748;2024-02-28T00:35:00;100794.81;;;-2.14;100.00
34925;BME280;21130;51.728;8.748;2024-02-28T00:37:26;100790.31;;;-2.06;100.00
34925;BME280;21130;51.728;8.748;2024-02-28T00:39:53;100793.19;;;-2.07;100.00
34925;BME280;21130;51.728;8.748;2024-02-28T00:42:19;100797.47;;;-2.05;100.00
34925;BME280;21130;51.728;8.748;2024-02-28T00:44:47;100802.13;;;-2.15;100.00
34925;BME280;21130;51.728;8.748;2024-02-28T00:47:13;100800.03;;;-2.21;100.00
34925;BME280;21130;51.728;8.748;2024-02-28T00:49:40;100806.78;;;-2.25;100.00
34925;BME280;21130;51.728;8.748;2024-02-28T00:52:06;100800.97;;;-2.30;100.00
34925;BME280;21130;51.728;8.748;2024-02-28T00:54:32;100803.81;;;-2.32;100.00
34925;BME280;21130;51.728;8.748;2024-02-28T00:56:59;100792.41;;;-2.35;100.00
34925;BME280;21130;51.728;8.748;2024-02-28T00:59:26;100793.88;;;-2.41;100.00
34925;BME280;21130;51.728;8.748;2024-02-28T01:01:53;100801.34;;;-2.43;100.00
34925;BME280;21130;51.728;8.748;2024-02-28T01:04:20;100801.56;;;-2.36;100.00
34925;BME280;21130;51.728;8.748;2024-02-28T01:06:46;100800.78;;;-2.47;100.00
34925;BME280;21130;51.728;8.748;2024-02-28T01:09:13;100804.78;;;-2.51;100.00
34925;BME280;21130;51.728;8.748;2024-02-28T01:11:39;100812.50;;;-2.46;100.00
34925;BME280;21130;51.728;8.748;2024-02-28T01:14:06;100802.78;;;-2.49;100.00
34925;BME280;21130;51.728;8.748;2024-02-28T01:16:32;100808.84;;;-2.55;100.00
34925;BME280;21130;51.728;8.748;2024-02-28T01:19:00;100804.72;;;-2.59;100.00
34925;BME280;21130;51.728;8.748;2024-02-28T01:21:26;100806.13;;;-2.55;100.00
34925;BME280;21130;51.728;8.748;2024-02-28T01:23:54;100802.31;;;-2.62;100.00
34925;BME280;21130;51.728;8.748;2024-02-28T01:26:20;100801.19;;;-2.69;100.00
34925;BME280;21130;51.728;8.748;2024-02-28T01:28:47;100795.81;;;-2.79;100.00
34925;BME280;21130;51.728;8.748;2024-02-28T01:31:14;100794.56;;;-2.85;100.00
34925;BME280;21130;51.728;8.748;2024-02-28T01:33:40;100798.75;;;-2.90;100.00
34925;BME280;21130;51.728;8.748;2024-02-28T01:36:08;100803.88;;;-2.87;100.00
34925;BME280;21130;51.728;8.748;2024-02-28T01:38:35;100803.88;;;-2.87;100.00
34925;BME280;21130;51.728;8.748;2024-02-28T01:41:02;100796.16;;;-2.92;100.00
34925;BME280;21130;51.728;8.748;2024-02-28T01:43:29;100803.91;;;-2.97;100.00
34925;BME280;21130;51.728;8.748;2024-02-28T01:45:56;100806.19;;;-2.92;100.00
34925;BME280;21130;51.728;8.748;2024-02-28T01:48:21;100807.34;;;-2.95;100.00
34925;BME280;21130;51.728;8.748;2024-02-28T01:50:48;100797.63;;;-2.97;100.00
34925;BME280;21130;51.728;8.748;2024-02-28T01:53:16;100800.22;;;-2.96;100.00
34925;BME280;21130;51.728;8.748;2024-02-28T01:55:42;100796.22;;;-3.01;100.00
34925;BME280;21130;51.728;8.748;2024-02-28T01:58:09;100807.50;;;-3.06;100.00
34925;BME280;21130;51.728;8.748;2024-02-28T02:00:36;100816.41;;;-3.14;100.00
34925;BME280;21130;51.728;8.748;2024-02-28T02:03:04;100808.13;;;-3.12;100.00
34925;BME280;21130;51.728;8.748;2024-02-28T02:05:30;100802.28;;;-3.17;100.00
34925;BME280;21130;51.728;8.748;2024-02-28T02:07:57;100805.31;;;-3.20;100.00
34925;BME280;21130;51.728;8.748;2024-02-28T02:10:25;100807.31;;;-3.22;100.00
34925;BME280;21130;51.728;8.748;2024-02-28T02:12:52;100810.16;;;-3.24;100.00
34925;BME280;21130;51.728;8.748;2024-02-28T02:15:18;100796.88;;;-3.27;100.00
34925;BME280;21130;51.728;8.748;2024-02-28T02:17:45;100801.47;;;-3.28;100.00
34925;BME280;21130;51.728;8.748;2024-02-28T02:20:14;100793.63;;;-3.31;100.00
34925;BME280;21130;51.728;8.748;2024-02-28T02:22:41;100783.44;;;-3.29;100.00
34925;BME280;21130;51.728;8.748;2024-02-28T02:25:09;100787.91;;;-3.28;100.00
34925;BME280;21130;51.728;8.748;2024-02-28T02:27:39;100788.75;;;-3.27;100.00
34925;BME280;21130;51.728;8.748;2024-02-28T02:30:06;100792.03;;;-3.23;100.00
34925;BME280;21130;51.728;8.748;2024-02-28T02:32:33;100795.44;;;-3.21;100.00
34925;BME280;21130;51.728;8.748;2024-02-28T02:34:59;100805.72;;;-3.15;100.00
34925;BME280;21130;51.728;8.748;2024-02-28T02:37:26;100799.13;;;-3.13;100.00
34925;BME280;21130;51.728;8.748;2024-02-28T02:39:53;100812.09;;;-3.07;100.00
34925;BME280;21130;51.728;8.748;2024-02-28T02:42:20;100796.38;;;-3.03;100.00
34925;BME280;21130;51.728;8.748;2024-02-28T02:44:47;100806.63;;;-2.97;100.00
34925;BME280;21130;51.728;8.748;2024-02-28T02:47:13;100807.34;;;-2.95;100.00
34925;BME280;21130;51.728;8.748;2024-02-28T02:49:40;100795.31;;;-2.92;100.00
34925;BME280;21130;51.728;8.748;2024-02-28T02:52:06;100804.72;;;-2.87;100.00
34925;BME280;21130;51.728;8.748;2024-02-28T02:54:32;100813.13;;;-2.80;100.00
34925;BME280;21130;51.728;8.748;2024-02-28T02:57:00;100802.22;;;-2.70;100.00
34925;BME280;21130;51.728;8.748;2024-02-28T02:59:27;100798.16;;;-2.66;100.00
34925;BME280;21130;51.728;8.748;2024-02-28T03:01:53;100809.16;;;-2.58;100.00
34925;BME280;21130;51.728;8.748;2024-02-28T03:04:19;100807.38;;;-2.49;100.00
34925;BME280;21130;51.728;8.748;2024-02-28T03:06:46;100809.13;;;-2.30;100.00
34925;BME280;21130;51.728;8.748;2024-02-28T03:09:12;100812.00;;;-2.14;100.00
34925;BME280;21130;51.728;8.748;2024-02-28T03:11:39;100805.06;;;-2.26;100.00
34925;BME280;21130;51.728;8.748;2024-02-28T03:14:07;100797.28;;;-2.39;100.00
34925;BME280;21130;51.728;8.748;2024-02-28T03:16:33;100807.63;;;-2.43;100.00
34925;BME280;21130;51.728;8.748;2024-02-28T03:19:02;100811.34;;;-2.44;100.00
34925;BME280;21130;51.728;8.748;2024-02-28T03:21:29;100809.00;;;-2.39;100.00
34925;BME280;21130;51.728;8.748;2024-02-28T03:23:55;100815.88;;;-2.34;100.00
34925;BME280;21130;51.728;8.748;2024-02-28T03:26:22;100815.22;;;-2.28;100.00
34925;BME280;21130;51.728;8.748;2024-02-28T03:28:49;100822.66;;;-2.21;100.00
34925;BME280;21130;51.728;8.748;2024-02-28T03:31:16;100828.63;;;-2.17;100.00
34925;BME280;21130;51.728;8.748;2024-02-28T03:33:43;100829.94;;;-2.03;100.00
34925;BME280;21130;51.728;8.748;2024-02-28T03:36:12;100835.78;;;-1.98;100.00
34925;BME280;21130;51.728;8.748;2024-02-28T03:38:38;100832.28;;;-1.90;100.00
34925;BME280;21130;51.728;8.748;2024-02-28T03:41:05;100837.47;;;-1.79;100.00
34925;BME280;21130;51.728;8.748;2024-02-28T03:43:31;100842.91;;;-1.79;100.00
34925;BME280;21130;51.728;8.748;2024-02-28T03:45:57;100840.59;;;-1.74;100.00
34925;BME280;21130;51.728;8.748;2024-02-28T03:48:25;100842.38;;;-1.65;100.00
34925;BME280;21130;51.728;8.748;2024-02-28T03:50:52;100846.66;;;-1.62;100.00
34925;BME280;21130;51.728;8.748;2024-02-28T03:53:18;100849.56;;;-1.56;100.00
34925;BME280;21130;51.728;8.748;2024-02-28T03:55:45;100859.13;;;-1.52;100.00
34925;BME280;21130;51.728;8.748;2024-02-28T03:58:11;100855.09;;;-1.47;100.00
34925;BME280;21130;51.728;8.748;2024-02-28T04:00:38;100858.91;;;-1.40;100.00
34925;BME280;21130;51.728;8.748;2024-02-28T04:03:05;100849.38;;;-1.36;100.00
34925;BME280;21130;51.728;8.748;2024-02-28T04:05:33;100834.34;;;-1.22;100.00
34925;BME280;21130;51.728;8.748;2024-02-28T04:07:59;100830.78;;;-1.23;100.00
34925;BME280;21130;51.728;8.748;2024-02-28T04:10:25;100830.97;;;-1.16;100.00
34925;BME280;21130;51.728;8.748;2024-02-28T04:12:51;100845.28;;;-1.14;100.00
34925;BME280;21130;51.728;8.748;2024-02-28T04:15:18;100849.41;;;-1.10;100.00
34925;BME280;21130;51.728;8.748;2024-02-28T04:17:44;100852.34;;;-1.03;100.00
34925;BME280;21130;51.728;8.748;2024-02-28T04:20:11;100849.94;;;-1.06;100.00
34925;BME280;21130;51.728;8.748;2024-02-28T04:22:39;100861.19;;;-1.01;100.00
34925;BME280;21130;51.728;8.748;2024-02-28T04:25:08;100861.91;;;-0.99;100.00
34925;BME280;21130;51.728;8.748;2024-02-28T04:27:35;100867.34;;;-0.99;100.00
34925;BME280;21130;51.728;8.748;2024-02-28T04:30:01;100863.97;;;-0.93;100.00
34925;BME280;21130;51.728;8.748;2024-02-28T04:32:48;100875.56;;;-0.91;100.00
34925;BME280;21130;51.728;8.748;2024-02-28T04:35:33;100871.19;;;-0.84;100.00
34925;BME280;21130;51.728;8.748;2024-02-28T04:38:19;100880.91;;;-0.81;100.00
34925;BME280;21130;51.728;8.748;2024-02-28T04:40:48;100885.28;;;-0.62;100.00
34925;BME280;21130;51.728;8.748;2024-02-28T04:43:15;100888.03;;;-0.54;100.00
34925;BME280;21130;51.728;8.748;2024-02-28T04:45:41;100885.53;;;-0.48;100.00
34925;BME280;21130;51.728;8.748;2024-02-28T04:48:07;100881.28;;;-0.42;100.00
34925;BME280;21130;51.728;8.748;2024-02-28T04:50:34;100892.81;;;-0.48;100.00
34925;BME280;21130;51.728;8.748;2024-02-28T04:53:01;100896.56;;;-0.49;100.00
34925;BME280;21130;51.728;8.748;2024-02-28T04:55:29;100902.03;;;-0.49;100.00
34925;BME280;21130;51.728;8.748;2024-02-28T04:57:55;100903.22;;;-0.52;100.00
34925;BME280;21130;51.728;8.748;2024-02-28T05:00:22;100898.56;;;-0.59;100.00
34925;BME280;21130;51.728;8.748;2024-02-28T05:02:50;100906.56;;;-0.58;100.00
34925;BME280;21130;51.728;8.748;2024-02-28T05:05:17;100912.53;;;-0.62;100.00
34925;BME280;21130;51.728;8.748;2024-02-28T05:07:44;100912.22;;;-0.59;100.00
34925;BME280;21130;51.728;8.748;2024-02-28T05:10:10;100915.19;;;-0.71;100.00
34925;BME280;21130;51.728;8.748;2024-02-28T05:12:38;100919.16;;;-0.65;100.00
34925;BME280;21130;51.728;8.748;2024-02-28T05:15:05;100916.91;;;-0.70;100.00
34925;BME280;21130;51.728;8.748;2024-02-28T05:17:32;100914.81;;;-0.76;100.00
34925;BME280;21130;51.728;8.748;2024-02-28T05:19:58;100923.75;;;-0.66;100.00
34925;BME280;21130;51.728;8.748;2024-02-28T05:22:25;100922.09;;;-0.58;100.00
34925;BME280;21130;51.728;8.748;2024-02-28T05:24:51;100926.19;;;-0.54;100.00
34925;BME280;21130;51.728;8.748;2024-02-28T05:27:18;100927.88;;;-0.61;100.00
34925;BME280;21130;51.728;8.748;2024-02-28T05:29:47;100929.03;;;-0.64;100.00
34925;BME280;21130;51.728;8.748;2024-02-28T05:32:14;100936.69;;;-0.68;100.00
34925;BME280;21130;51.728;8.748;2024-02-28T05:34:42;100949.16;;;-0.65;100.00
34925;BME280;21130;51.728;8.748;2024-02-28T05:37:08;100948.13;;;-0.64;100.00
34925;BME280;21130;51.728;8.748;2024-02-28T05:39:35;100944.22;;;-0.61;100.00
34925;BME280;21130;51.728;8.748;2024-02-28T05:42:02;100953.91;;;-0.67;100.00
34925;BME280;21130;51.728;8.748;2024-02-28T05:44:28;100962.78;;;-0.65;100.00
34925;BME280;21130;51.728;8.748;2024-02-28T05:46:56;100956.06;;;-0.71;100.00
34925;BME280;21130;51.728;8.748;2024-02-28T05:49:23;100961.91;;;-0.66;100.00
34925;BME280;21130;51.728;8.748;2024-02-28T05:51:49;100964.00;;;-0.59;100.00
34925;BME280;21130;51.728;8.748;2024-02-28T05:54:15;100959.53;;;-0.60;100.00
34925;BME280;21130;51.728;8.748;2024-02-28T05:56:42;100960.09;;;-0.57;100.00
34925;BME280;21130;51.728;8.748;2024-02-28T05:59:08;100967.91;;;-0.62;100.00
34925;BME280;21130;51.728;8.748;2024-02-28T06:01:35;100968.41;;;-0.58;100.00
34925;BME280;21130;51.728;8.748;2024-02-28T06:04:04;100976.28;;;-0.55;100.00
34925;BME280;21130;51.728;8.748;2024-02-28T06:06:31;100981.06;;;-0.57;100.00
34925;BME280;21130;51.728;8.748;2024-02-28T06:08:57;100976.09;;;-0.62;100.00
34925;BME280;21130;51.728;8.748;2024-02-28T06:11:24;100974.34;;;-0.63;100.00
34925;BME280;21130;51.728;8.748;2024-02-28T06:13:51;100985.44;;;-0.64;100.00
34925;BME280;21130;51.728;8.748;2024-02-28T06:16:17;100989.91;;;-0.55;100.00
34925;BME280;21130;51.728;8.748;2024-02-28T06:18:44;100993.50;;;-0.55;100.00
34925;BME280;21130;51.728;8.748;2024-02-28T06:21:12;100994.00;;;-0.59;100.00
34925;BME280;21130;51.728;8.748;2024-02-28T06:23:39;100997.03;;;-0.62;100.00
34925;BME280;21130;51.728;8.748;2024-02-28T06:26:05;100992.16;;;-0.51;100.00
34925;BME280;21130;51.728;8.748;2024-02-28T06:28:32;100996.75;;;-0.51;100.00
34925;BME280;21130;51.728;8.748;2024-02-28T06:30:59;101007.50;;;-0.50;100.00
34925;BME280;21130;51.728;8.748;2024-02-28T06:33:24;101004.78;;;-0.50;100.00
34925;BME280;21130;51.728;8.748;2024-02-28T06:35:51;101011.56;;;-0.54;100.00
34925;BME280;21130;51.728;8.748;2024-02-28T06:38:18;101009.38;;;-0.50;100.00
34925;BME280;21130;51.728;8.748;2024-02-28T06:40:45;101008.22;;;-0.48;100.00
34925;BME280;21130;51.728;8.748;2024-02-28T06:43:12;101014.44;;;-0.55;100.00
34925;BME280;21130;51.728;8.748;2024-02-28T06:45:38;101015.69;;;-0.50;100.00
34925;BME280;21130;51.728;8.748;2024-02-28T06:48:06;101025.09;;;-0.44;100.00
34925;BME280;21130;51.728;8.748;2024-02-28T06:50:33;101031.16;;;-0.50;100.00
34925;BME280;21130;51.728;8.748;2024-02-28T06:52:59;101026.13;;;-0.45;100.00
34925;BME280;21130;51.728;8.748;2024-02-28T06:55:27;101025.91;;;-0.52;100.00
34925;BME280;21130;51.728;8.748;2024-02-28T06:57:53;101020.97;;;-0.48;100.00
34925;BME280;21130;51.728;8.748;2024-02-28T07:00:20;101026.03;;;-0.53;100.00
34925;BME280;21130;51.728;8.748;2024-02-28T07:02:47;101028.53;;;-0.42;100.00
34925;BME280;21130;51.728;8.748;2024-02-28T07:05:15;101028.53;;;-0.42;100.00
34925;BME280;21130;51.728;8.748;2024-02-28T07:07:41;101033.97;;;-0.42;100.00
34925;BME280;21130;51.728;8.748;2024-02-28T07:10:08;101043.38;;;-0.36;100.00
34925;BME280;21130;51.728;8.748;2024-02-28T07:12:36;101039.09;;;-0.39;100.00
34925;BME280;21130;51.728;8.748;2024-02-28T07:15:03;101035.47;;;-0.22;100.00
34925;BME280;21130;51.728;8.748;2024-02-28T07:17:31;101027.25;;;-0.30;100.00
34925;BME280;21130;51.728;8.748;2024-02-28T07:19:58;101026.22;;;-0.29;100.00
34925;BME280;21130;51.728;8.748;2024-02-28T07:22:24;101037.88;;;-0.18;100.00
34925;BME280;21130;51.728;8.748;2024-02-28T07:24:51;101035.47;;;-0.22;100.00
34925;BME280;21130;51.728;8.748;2024-02-28T07:27:17;101035.69;;;-0.15;100.00
34925;BME280;21130;51.728;8.748;2024-02-28T07:29:45;101040.44;;;-0.17;100.00
34925;BME280;21130;51.728;8.748;2024-02-28T07:32:12;101032.78;;;-0.13;100.00
34925;BME280;21130;51.728;8.748;2024-02-28T07:34:39;101032.66;;;-0.04;100.00
34925;BME280;21130;51.728;8.748;2024-02-28T07:37:05;101030.06;;;-0.05;100.00
34925;BME280;21130;51.728;8.748;2024-02-28T07:39:31;101032.28;;;-0.09;100.00
34925;BME280;21130;51.728;8.748;2024-02-28T07:42:18;101038.22;;;-0.13;100.00
34925;BME280;21130;51.728;8.748;2024-02-28T07:45:05;101033.69;;;-0.05;100.00
34925;BME280;21130;51.728;8.748;2024-02-28T07:47:33;101033.84;;;-0.06;100.00
34925;BME280;21130;51.728;8.748;2024-02-28T07:50:00;101035.25;;;0.06;100.00
34925;BME280;21130;51.728;8.748;2024-02-28T07:52:26;101038.81;;;-0.02;100.00
34925;BME280;21130;51.728;8.748;2024-02-28T07:54:53;101041.06;;;0.03;100.00
34925;BME280;21130;51.728;8.748;2024-02-28T07:57:19;101042.06;;;0.02;100.00
34925;BME280;21130;51.728;8.748;2024-02-28T07:59:46;101051.84;;;0.13;100.00
34925;BME280;21130;51.728;8.748;2024-02-28T08:02:14;101049.50;;;0.26;100.00
34925;BME280;21130;51.728;8.748;2024-02-28T08:04:40;101047.97;;;0.24;100.00
34925;BME280;21130;51.728;8.748;2024-02-28T08:07:07;101046.28;;;0.31;100.00
34925;BME280;21130;51.728;8.748;2024-02-28T08:09:33;101053.84;;;0.45;100.00
34925;BME280;21130;51.728;8.748;2024-02-28T08:12:00;101045.66;;;0.45;100.00
34925;BME280;21130;51.728;8.748;2024-02-28T08:14:27;101045.66;;;0.45;100.00
34925;BME280;21130;51.728;8.748;2024-02-28T08:16:53;101049.25;;;0.46;100.00
34925;BME280;21130;51.728;8.748;2024-02-28T08:19:21;101047.72;;;0.43;100.00
34925;BME280;21130;51.728;8.748;2024-02-28T08:21:48;101045.34;;;0.48;100.00
34925;BME280;21130;51.728;8.748;2024-02-28T08:24:15;101052.00;;;0.62;100.00
34925;BME280;21130;51.728;8.748;2024-02-28T08:26:41;101055.59;;;0.62;100.00
34925;BME280;21130;51.728;8.748;2024-02-28T08:29:08;101048.72;;;0.42;100.00
34925;BME280;21130;51.728;8.748;2024-02-28T08:31:39;101045.56;;;0.63;100.00
34925;BME280;21130;51.728;8.748;2024-02-28T08:34:06;101048.78;;;0.58;100.00
34925;BME280;21130;51.728;8.748;2024-02-28T08:36:35;101049.78;;;0.57;100.00
34925;BME280;21130;51.728;8.748;2024-02-28T08:39:01;101047.25;;;0.64;100.00
34925;BME280;21130;51.728;8.748;2024-02-28T08:41:31;101052.91;;;0.79;100.00
34925;BME280;21130;51.728;8.748;2024-02-28T08:43:57;101052.44;;;0.92;100.00
34925;BME280;21130;51.728;8.748;2024-02-28T08:46:24;101055.00;;;1.01;100.00
34925;BME280;21130;51.728;8.748;2024-02-28T08:48:50;101060.50;;;1.26;100.00
34925;BME280;21130;51.728;8.748;2024-02-28T08:51:17;101057.59;;;1.36;100.00
34925;BME280;21130;51.728;8.748;2024-02-28T08:53:45;101062.22;;;1.43;100.00
34925;BME280;21130;51.728;8.748;2024-02-28T08:56:11;101067.84;;;1.42;100.00
34925;BME280;21130;51.728;8.748;2024-02-28T08:58:38;101070.56;;;1.66;100.00
34925;BME280;21130;51.728;8.748;2024-02-28T09:01:05;101067.97;;;1.81;100.00
34925;BME280;21130;51.728;8.748;2024-02-28T09:03:31;101071.53;;;1.90;100.00
34925;BME280;21130;51.728;8.748;2024-02-28T09:05:58;101066.53;;;2.10;100.00
34925;BME280;21130;51.728;8.748;2024-02-28T09:08:25;101065.00;;;2.07;100.00
34925;BME280;21130;51.728;8.748;2024-02-28T09:10:52;101067.66;;;2.32;100.00
34925;BME280;21130;51.728;8.748;2024-02-28T09:13:19;101060.16;;;2.26;100.00
34925;BME280;21130;51.728;8.748;2024-02-28T09:15:45;101055.50;;;2.66;100.00
34925;BME280;21130;51.728;8.748;2024-02-28T09:18:12;101059.28;;;3.19;100.00
34925;BME280;21130;51.728;8.748;2024-02-28T09:20:38;101042.84;;;3.57;100.00
34925;BME280;21130;51.728;8.748;2024-02-28T09:23:05;101039.50;;;4.29;100.00
34925;BME280;21130;51.728;8.748;2024-02-28T09:25:32;101030.63;;;5.00;100.00
34925;BME280;21130;51.728;8.748;2024-02-28T09:28:01;101024.28;;;5.49;100.00
34925;BME280;21130;51.728;8.748;2024-02-28T09:30:28;101030.09;;;6.10;100.00
34925;BME280;21130;51.728;8.748;2024-02-28T09:32:55;101030.34;;;6.63;100.00
34925;BME280;21130;51.728;8.748;2024-02-28T09:35:21;101033.25;;;7.17;100.00
34925;BME280;21130;51.728;8.748;2024-02-28T09:37:47;101031.78;;;7.74;100.00
34925;BME280;21130;51.728;8.748;2024-02-28T09:40:14;101031.94;;;8.19;100.00
34925;BME280;21130;51.728;8.748;2024-02-28T09:42:41;101028.06;;;8.53;100.00
34925;BME280;21130;51.728;8.748;2024-02-28T09:45:10;101023.59;;;9.29;100.00
34925;BME280;21130;51.728;8.748;2024-02-28T09:47:39;101028.06;;;10.05;100.00
34925;BME280;21130;51.728;8.748;2024-02-28T09:50:06;101028.72;;;10.26;100.00
34925;BME280;21130;51.728;8.748;2024-02-28T09:52:35;101028.88;;;10.86;100.00
34925;BME280;21130;51.728;8.748;2024-02-28T09:55:01;101019.50;;;9.88;100.00
34925;BME280;21130;51.728;8.748;2024-02-28T09:57:28;101023.59;;;9.29;100.00
34925;BME280;21130;51.728;8.748;2024-02-28T09:59:56;101024.31;;;8.73;100.00
34925;BME280;21130;51.728;8.748;2024-02-28T10:02:26;101029.00;;;8.00;100.00
34925;BME280;21130;51.728;8.748;2024-02-28T10:04:53;101037.06;;;7.16;100.00
34925;BME280;21130;51.728;8.748;2024-02-28T10:07:22;101035.94;;;6.35;100.00
34925;BME280;21130;51.728;8.748;2024-02-28T10:09:49;101044.09;;;6.57;100.00
34925;BME280;21130;51.728;8.748;2024-02-28T10:12:20;101049.13;;;7.01;100.00
34925;BME280;21130;51.728;8.748;2024-02-28T10:14:49;101042.75;;;6.94;100.00
34925;BME280;21130;51.728;8.748;2024-02-28T10:17:16;101042.81;;;7.34;100.00
34925;BME280;21130;51.728;8.748;2024-02-28T10:19:44;101050.94;;;6.74;100.00
34925;BME280;21130;51.728;8.748;2024-02-28T10:22:10;101046.72;;;6.30;100.00
34925;BME280;21130;51.728;8.748;2024-02-28T10:24:37;101050.63;;;6.08;100.00
34925;BME280;21130;51.728;8.748;2024-02-28T10:27:04;101056.56;;;6.46;100.00
34925;BME280;21130;51.728;8.748;2024-02-28T10:29:31;101040.38;;;6.84;100.00
34925;BME280;21130;51.728;8.748;2024-02-28T10:31:58;101043.84;;;7.06;100.00
34925;BME280;21130;51.728;8.748;2024-02-28T10:34:24;101038.31;;;6.45;100.00
34925;BME280;21130;51.728;8.748;2024-02-28T10:36:52;101038.16;;;7.41;100.00
34925;BME280;21130;51.728;8.748;2024-02-28T10:39:19;101035.41;;;7.61;100.00
34925;BME280;21130;51.728;8.748;2024-02-28T10:41:48;101035.94;;;8.30;100.00
34925;BME280;21130;51.728;8.748;2024-02-28T10:44:16;101037.47;;;8.19;100.00
34925;BME280;21130;51.728;8.748;2024-02-28T10:46:44;101037.31;;;7.74;100.00
34925;BME280;21130;51.728;8.748;2024-02-28T10:49:12;101037.75;;;7.77;100.00
34925;BME280;21130;51.728;8.748;2024-02-28T10:51:40;101041.97;;;8.07;100.00
34925;BME280;21130;51.728;8.748;2024-02-28T10:54:12;101040.31;;;7.66;100.00
34925;BME280;21130;51.728;8.748;2024-02-28T10:56:40;101043.41;;;7.09;100.00
34925;BME280;21130;51.728;8.748;2024-02-28T10:59:07;101039.41;;;7.05;100.00
34925;BME280;21130;51.728;8.748;2024-02-28T11:01:35;101043.66;;;7.34;100.00
34925;BME280;21130;51.728;8.748;2024-02-28T11:04:02;101038.59;;;7.45;100.00
34925;BME280;21130;51.728;8.748;2024-02-28T11:06:29;101037.94;;;7.89;100.00
34925;BME280;21130;51.728;8.748;2024-02-28T11:08:59;101041.34;;;7.65;100.00
34925;BME280;21130;51.728;8.748;2024-02-28T11:11:30;101032.59;;;8.14;100.00
34925;BME280;21130;51.728;8.748;2024-02-28T11:13:57;101021.03;;;8.96;100.00
34925;BME280;21130;51.728;8.748;2024-02-28T11:25:46;101025.53;;;8.32;100.00
34925;BME280;21130;51.728;8.748;2024-02-28T11:28:15;101030.50;;;7.96;100.00
34925;BME280;21130;51.728;8.748;2024-02-28T11:30:42;101017.97;;;7.74;100.00
34925;BME280;21130;51.728;8.748;2024-02-28T11:33:08;101025.38;;;8.13;100.00
34925;BME280;21130;51.728;8.748;2024-02-28T11:35:35;101027.13;;;7.81;100.00
34925;BME280;21130;51.728;8.748;2024-02-28T11:38:01;101026.88;;;8.03;100.00
34925;BME280;21130;51.728;8.748;2024-02-28T11:40:28;101030.97;;;7.40;100.00
34925;BME280;21130;51.728;8.748;2024-02-28T11:42:54;101027.97;;;7.48;100.00
34925;BME280;21130;51.728;8.748;2024-02-28T11:45:22;101040.09;;;7.61;100.00
34925;BME280;21130;51.728;8.748;2024-02-28T11:47:50;101036.03;;;7.36;100.00
34925;BME280;21130;51.728;8.748;2024-02-28T11:50:17;101034.94;;;8.04;100.00
34925;BME280;21130;51.728;8.748;2024-02-28T11:52:44;101030.47;;;8.10;100.00
34925;BME280;21130;51.728;8.748;2024-02-28T11:55:11;101036.63;;;8.18;100.00
34925;BME280;21130;51.728;8.748;2024-02-28T11:57:38;101037.50;;;8.77;100.00
34925;BME280;21130;51.728;8.748;2024-02-28T12:00:07;101026.88;;;8.03;100.00
34925;BME280;21130;51.728;8.748;2024-02-28T12:02:35;101027.94;;;8.01;100.00
34925;BME280;21130;51.728;8.748;2024-02-28T12:05:02;101026.00;;;7.09;100.00
34925;BME280;21130;51.728;8.748;2024-02-28T12:07:29;101026.25;;;7.47;100.00
34925;BME280;21130;51.728;8.748;2024-02-28T12:09:55;101021.78;;;7.00;100.00
34925;BME280;21130;51.728;8.748;2024-02-28T12:12:22;101012.25;;;7.42;100.00
34925;BME280;21130;51.728;8.748;2024-02-28T12:14:50;101016.09;;;7.48;100.00
34925;BME280;21130;51.728;8.748;2024-02-28T12:17:17;101017.31;;;7.98;100.00
34925;BME280;21130;51.728;8.748;2024-02-28T12:19:45;101015.34;;;8.26;100.00
34925;BME280;21130;51.728;8.748;2024-02-28T12:22:11;101012.09;;;8.49;100.00
34925;BME280;21130;51.728;8.748;2024-02-28T12:24:38;101010.06;;;8.04;100.00
34925;BME280;21130;51.728;8.748;2024-02-28T12:27:04;101009.00;;;8.12;100.00
34925;BME280;21130;51.728;8.748;2024-02-28T12:29:31;101007.53;;;7.89;100.00
34925;BME280;21130;51.728;8.748;2024-02-28T12:31:58;101007.78;;;7.74;100.00
34925;BME280;21130;51.728;8.748;2024-02-28T12:34:25;101003.13;;;7.48;100.00
34925;BME280;21130;51.728;8.748;2024-02-28T12:36:53;100996.69;;;7.94;100.00
34925;BME280;21130;51.728;8.748;2024-02-28T12:39:20;100988.25;;;8.54;100.00
34925;BME280;21130;51.728;8.748;2024-02-28T12:41:47;100977.47;;;8.26;100.00
34925;BME280;21130;51.728;8.748;2024-02-28T12:44:14;100970.66;;;8.35;100.00
34925;BME280;21130;51.728;8.748;2024-02-28T12:46:41;100972.09;;;8.51;100.00
34925;BME280;21130;51.728;8.748;2024-02-28T12:49:07;100967.66;;;8.82;100.00
34925;BME280;21130;51.728;8.748;2024-02-28T12:51:39;100957.56;;;9.26;100.00